sensor_id;sensor_type;location;lat;lon;timestamp;P1;durP1;ratioP1;P2;durP2;ratioP2
38123;SDS011;23934;47.998;9.832;2023-04-25T00:00:12;5.03;;;2.72;;
38123;SDS011;23934;47.998;9.832;2023-04-25T00:02:38;12.93;;;3.33;;
38123;SDS011;23934;47.998;9.832;2023-04-25T00:05:04;9.48;;;3.10;;
38123;SDS011;23934;47.998;9.832;2023-04-25T00:07:30;6.90;;;3.28;;
38123;SDS011;23934;47.998;9.832;2023-04-25T00:09:57;7.80;;;3.10;;
38123;SDS011;23934;47.998;9.832;2023-04-25T00:12:23;7.45;;;2.70;;
38123;SDS011;23934;47.998;9.832;2023-04-25T00:14:49;8.52;;;3.90;;
38123;SDS011;23934;47.998;9.832;2023-04-25T00:17:15;6.10;;;2.88;;
38123;SDS011;23934;47.998;9.832;2023-04-25T00:19:41;5.75;;;2.90;;
38123;SDS011;23934;47.998;9.832;2023-04-25T00:22:09;10.55;;;3.35;;
38123;SDS011;23934;47.998;9.832;2023-04-25T00:24:35;12.73;;;3.13;;
38123;SDS011;23934;47.998;9.832;2023-04-25T00:27:01;14.18;;;4.22;;
38123;SDS011;23934;47.998;9.832;2023-04-25T00:29:27;7.43;;;3.08;;
38123;SDS011;23934;47.998;9.832;2023-04-25T00:31:53;6.43;;;2.63;;
38123;SDS011;23934;47.998;9.832;2023-04-25T00:34:19;6.90;;;2.88;;
38123;SDS011;23934;47.998;9.832;2023-04-25T00:36:45;6.32;;;2.47;;
38123;SDS011;23934;47.998;9.832;2023-04-25T00:39:11;6.25;;;3.03;;
38123;SDS011;23934;47.998;9.832;2023-04-25T00:41:37;7.97;;;3.28;;
38123;SDS011;23934;47.998;9.832;2023-04-25T00:44:04;8.23;;;2.95;;
38123;SDS011;23934;47.998;9.832;2023-04-25T00:46:31;11.60;;;3.17;;
38123;SDS011;23934;47.998;9.832;2023-04-25T00:48:58;8.68;;;3.20;;
38123;SDS011;23934;47.998;9.832;2023-04-25T00:51:24;6.32;;;2.60;;
38123;SDS011;23934;47.998;9.832;2023-04-25T00:53:51;6.63;;;3.35;;
38123;SDS011;23934;47.998;9.832;2023-04-25T00:56:18;10.40;;;2.40;;
38123;SDS011;23934;47.998;9.832;2023-04-25T00:58:44;4.32;;;2.00;;
38123;SDS011;23934;47.998;9.832;2023-04-25T01:01:10;13.98;;;2.92;;
38123;SDS011;23934;47.998;9.832;2023-04-25T01:03:38;6.97;;;2.25;;
38123;SDS011;23934;47.998;9.832;2023-04-25T01:06:06;8.10;;;2.72;;
38123;SDS011;23934;47.998;9.832;2023-04-25T01:08:33;5.60;;;2.85;;
38123;SDS011;23934;47.998;9.832;2023-04-25T01:11:00;6.32;;;2.28;;
38123;SDS011;23934;47.998;9.832;2023-04-25T01:13:26;4.15;;;1.92;;
38123;SDS011;23934;47.998;9.832;2023-04-25T01:15:52;0.00;;;0.00;;
38123;SDS011;23934;47.998;9.832;2023-04-25T01:18:18;0.00;;;0.00;;
38123;SDS011;23934;47.998;9.832;2023-04-25T01:20:45;0.00;;;0.00;;
38123;SDS011;23934;47.998;9.832;2023-04-25T01:23:11;0.00;;;0.00;;
38123;SDS011;23934;47.998;9.832;2023-04-25T01:25:38;0.10;;;0.10;;
38123;SDS011;23934;47.998;9.832;2023-04-25T01:28:04;0.63;;;0.30;;
38123;SDS011;23934;47.998;9.832;2023-04-25T01:30:30;0.00;;;0.00;;
38123;SDS011;23934;47.998;9.832;2023-04-25T01:32:56;0.00;;;0.00;;
38123;SDS011;23934;47.998;9.832;2023-04-25T01:35:23;0.00;;;0.00;;
38123;SDS011;23934;47.998;9.832;2023-04-25T01:37:49;0.00;;;0.00;;
38123;SDS011;23934;47.998;9.832;2023-04-25T01:40:15;0.00;;;0.00;;
38123;SDS011;23934;47.998;9.832;2023-04-25T01:42:43;0.00;;;0.00;;
38123;SDS011;23934;47.998;9.832;2023-04-25T01:45:09;0.00;;;0.00;;
38123;SDS011;23934;47.998;9.832;2023-04-25T01:47:36;0.00;;;0.00;;
38123;SDS011;23934;47.998;9.832;2023-04-25T01:50:02;0.00;;;0.00;;
38123;SDS011;23934;47.998;9.832;2023-04-25T01:52:28;0.00;;;0.00;;
38123;SDS011;23934;47.998;9.832;2023-04-25T01:54:55;0.00;;;0.00;;
38123;SDS011;23934;47.998;9.832;2023-04-25T01:57:22;0.00;;;0.00;;
38123;SDS011;23934;47.998;9.832;2023-04-25T01:59:48;0.00;;;0.00;;
38123;SDS011;23934;47.998;9.832;2023-04-25T02:02:14;0.15;;;0.15;;
38123;SDS011;23934;47.998;9.832;2023-04-25T02:04:40;0.00;;;0.00;;
38123;SDS011;23934;47.998;9.832;2023-04-25T02:07:06;0.75;;;0.60;;
38123;SDS011;23934;47.998;9.832;2023-04-25T02:09:32;0.00;;;0.00;;
38123;SDS011;23934;47.998;9.832;2023-04-25T02:11:58;0.00;;;0.00;;
38123;SDS011;23934;47.998;9.832;2023-04-25T02:14:24;0.38;;;0.38;;
38123;SDS011;23934;47.998;9.832;2023-04-25T02:16:50;0.10;;;0.10;;
38123;SDS011;23934;47.998;9.832;2023-04-25T02:19:16;0.00;;;0.00;;
38123;SDS011;23934;47.998;9.832;2023-04-25T02:21:42;0.00;;;0.00;;
38123;SDS011;23934;47.998;9.832;2023-04-25T02:24:08;0.00;;;0.00;;
38123;SDS011;23934;47.998;9.832;2023-04-25T02:26:34;0.00;;;0.00;;
38123;SDS011;23934;47.998;9.832;2023-04-25T02:29:00;0.10;;;0.10;;
38123;SDS011;23934;47.998;9.832;2023-04-25T02:31:26;0.00;;;0.00;;
38123;SDS011;23934;47.998;9.832;2023-04-25T02:33:52;0.00;;;0.00;;
38123;SDS011;23934;47.998;9.832;2023-04-25T02:36:18;0.10;;;0.10;;
38123;SDS011;23934;47.998;9.832;2023-04-25T02:38:45;0.00;;;0.00;;
38123;SDS011;23934;47.998;9.832;2023-04-25T02:41:11;0.00;;;0.00;;
38123;SDS011;23934;47.998;9.832;2023-04-25T02:43:37;0.00;;;0.00;;
38123;SDS011;23934;47.998;9.832;2023-04-25T02:46:03;0.05;;;0.05;;
38123;SDS011;23934;47.998;9.832;2023-04-25T02:48:29;0.00;;;0.00;;
38123;SDS011;23934;47.998;9.832;2023-04-25T02:50:55;0.30;;;0.30;;
38123;SDS011;23934;47.998;9.832;2023-04-25T02:53:21;0.00;;;0.00;;
38123;SDS011;23934;47.998;9.832;2023-04-25T02:55:47;0.00;;;0.00;;
38123;SDS011;23934;47.998;9.832;2023-04-25T02:58:13;0.00;;;0.00;;
38123;SDS011;23934;47.998;9.832;2023-04-25T03:00:40;0.00;;;0.00;;
38123;SDS011;23934;47.998;9.832;2023-04-25T03:03:06;0.00;;;0.00;;
38123;SDS011;23934;47.998;9.832;2023-04-25T03:05:32;0.03;;;0.03;;
38123;SDS011;23934;47.998;9.832;2023-04-25T03:07:58;0.00;;;0.00;;
38123;SDS011;23934;47.998;9.832;2023-04-25T03:10:24;0.25;;;0.25;;
38123;SDS011;23934;47.998;9.832;2023-04-25T03:12:50;0.00;;;0.00;;
38123;SDS011;23934;47.998;9.832;2023-04-25T03:15:16;0.00;;;0.00;;
38123;SDS011;23934;47.998;9.832;2023-04-25T03:17:42;0.57;;;0.57;;
38123;SDS011;23934;47.998;9.832;2023-04-25T03:20:08;0.00;;;0.00;;
38123;SDS011;23934;47.998;9.832;2023-04-25T03:22:34;0.00;;;0.00;;
38123;SDS011;23934;47.998;9.832;2023-04-25T03:25:00;0.00;;;0.00;;
38123;SDS011;23934;47.998;9.832;2023-04-25T03:27:26;0.00;;;0.00;;
38123;SDS011;23934;47.998;9.832;2023-04-25T03:29:52;0.00;;;0.00;;
38123;SDS011;23934;47.998;9.832;2023-04-25T03:32:18;0.00;;;0.00;;
38123;SDS011;23934;47.998;9.832;2023-04-25T03:34:43;0.25;;;0.25;;
38123;SDS011;23934;47.998;9.832;2023-04-25T03:37:09;0.00;;;0.00;;
38123;SDS011;23934;47.998;9.832;2023-04-25T03:39:35;0.00;;;0.00;;
38123;SDS011;23934;47.998;9.832;2023-04-25T03:42:02;0.00;;;0.00;;
38123;SDS011;23934;47.998;9.832;2023-04-25T03:44:28;4.13;;;3.30;;
38123;SDS011;23934;47.998;9.832;2023-04-25T03:46:54;0.00;;;0.00;;
38123;SDS011;23934;47.998;9.832;2023-04-25T03:49:20;0.00;;;0.00;;
38123;SDS011;23934;47.998;9.832;2023-04-25T03:51:46;0.00;;;0.00;;
38123;SDS011;23934;47.998;9.832;2023-04-25T03:54:12;0.00;;;0.00;;
38123;SDS011;23934;47.998;9.832;2023-04-25T03:56:38;0.00;;;0.00;;
38123;SDS011;23934;47.998;9.832;2023-04-25T03:59:04;0.10;;;0.10;;
38123;SDS011;23934;47.998;9.832;2023-04-25T04:01:30;0.00;;;0.00;;
38123;SDS011;23934;47.998;9.832;2023-04-25T04:03:56;0.10;;;0.10;;
38123;SDS011;23934;47.998;9.832;2023-04-25T04:06:22;0.00;;;0.00;;
38123;SDS011;23934;47.998;9.832;2023-04-25T04:08:48;0.00;;;0.00;;
38123;SDS011;23934;47.998;9.832;2023-04-25T04:11:14;0.00;;;0.00;;
38123;SDS011;23934;47.998;9.832;2023-04-25T04:13:40;0.00;;;0.00;;
38123;SDS011;23934;47.998;9.832;2023-04-25T04:16:06;0.00;;;0.00;;
38123;SDS011;23934;47.998;9.832;2023-04-25T04:18:32;0.00;;;0.00;;
38123;SDS011;23934;47.998;9.832;2023-04-25T04:20:58;0.00;;;0.00;;
38123;SDS011;23934;47.998;9.832;2023-04-25T04:23:24;0.10;;;0.10;;
38123;SDS011;23934;47.998;9.832;2023-04-25T04:25:52;0.00;;;0.00;;
38123;SDS011;23934;47.998;9.832;2023-04-25T04:28:19;0.17;;;0.17;;
38123;SDS011;23934;47.998;9.832;2023-04-25T04:30:45;0.00;;;0.00;;
38123;SDS011;23934;47.998;9.832;2023-04-25T04:33:11;0.00;;;0.00;;
38123;SDS011;23934;47.998;9.832;2023-04-25T04:35:37;0.00;;;0.00;;
38123;SDS011;23934;47.998;9.832;2023-04-25T04:38:03;0.00;;;0.00;;
38123;SDS011;23934;47.998;9.832;2023-04-25T04:40:29;0.00;;;0.00;;
38123;SDS011;23934;47.998;9.832;2023-04-25T04:42:56;0.00;;;0.00;;
38123;SDS011;23934;47.998;9.832;2023-04-25T04:45:22;0.00;;;0.00;;
38123;SDS011;23934;47.998;9.832;2023-04-25T04:47:48;0.00;;;0.00;;
38123;SDS011;23934;47.998;9.832;2023-04-25T04:50:15;0.00;;;0.00;;
38123;SDS011;23934;47.998;9.832;2023-04-25T04:52:41;0.00;;;0.00;;
38123;SDS011;23934;47.998;9.832;2023-04-25T04:55:07;0.00;;;0.00;;
38123;SDS011;23934;47.998;9.832;2023-04-25T04:57:34;0.00;;;0.00;;
38123;SDS011;23934;47.998;9.832;2023-04-25T05:00:00;0.03;;;0.03;;
38123;SDS011;23934;47.998;9.832;2023-04-25T05:02:29;0.38;;;0.35;;
38123;SDS011;23934;47.998;9.832;2023-04-25T05:04:55;0.00;;;0.00;;
38123;SDS011;23934;47.998;9.832;2023-04-25T05:07:21;0.10;;;0.10;;
38123;SDS011;23934;47.998;9.832;2023-04-25T05:09:47;0.00;;;0.00;;
38123;SDS011;23934;47.998;9.832;2023-04-25T05:12:13;2.85;;;2.17;;
38123;SDS011;23934;47.998;9.832;2023-04-25T05:14:39;0.22;;;0.22;;
38123;SDS011;23934;47.998;9.832;2023-04-25T05:17:05;0.35;;;0.35;;
38123;SDS011;23934;47.998;9.832;2023-04-25T05:19:33;0.00;;;0.00;;
38123;SDS011;23934;47.998;9.832;2023-04-25T05:21:59;0.10;;;0.10;;
38123;SDS011;23934;47.998;9.832;2023-04-25T05:24:25;0.73;;;0.73;;
38123;SDS011;23934;47.998;9.832;2023-04-25T05:26:51;0.55;;;0.38;;
38123;SDS011;23934;47.998;9.832;2023-04-25T05:29:18;0.00;;;0.00;;
38123;SDS011;23934;47.998;9.832;2023-04-25T05:31:44;0.28;;;0.28;;
38123;SDS011;23934;47.998;9.832;2023-04-25T05:34:12;0.00;;;0.00;;
38123;SDS011;23934;47.998;9.832;2023-04-25T05:36:38;0.00;;;0.00;;
38123;SDS011;23934;47.998;9.832;2023-04-25T05:39:04;0.22;;;0.22;;
38123;SDS011;23934;47.998;9.832;2023-04-25T05:41:31;0.25;;;0.25;;
38123;SDS011;23934;47.998;9.832;2023-04-25T05:43:57;0.00;;;0.00;;
38123;SDS011;23934;47.998;9.832;2023-04-25T05:46:23;0.00;;;0.00;;
38123;SDS011;23934;47.998;9.832;2023-04-25T05:48:49;0.00;;;0.00;;
38123;SDS011;23934;47.998;9.832;2023-04-25T05:51:15;0.00;;;0.00;;
38123;SDS011;23934;47.998;9.832;2023-04-25T05:53:41;0.00;;;0.00;;
38123;SDS011;23934;47.998;9.832;2023-04-25T05:56:07;0.22;;;0.22;;
38123;SDS011;23934;47.998;9.832;2023-04-25T05:58:33;0.00;;;0.00;;
38123;SDS011;23934;47.998;9.832;2023-04-25T06:00:59;0.08;;;0.08;;
38123;SDS011;23934;47.998;9.832;2023-04-25T06:03:25;2.15;;;0.77;;
38123;SDS011;23934;47.998;9.832;2023-04-25T06:05:51;3.30;;;1.27;;
38123;SDS011;23934;47.998;9.832;2023-04-25T06:08:17;1.92;;;1.55;;
38123;SDS011;23934;47.998;9.832;2023-04-25T06:10:43;6.53;;;2.50;;
38123;SDS011;23934;47.998;9.832;2023-04-25T06:13:10;8.10;;;3.20;;
38123;SDS011;23934;47.998;9.832;2023-04-25T06:15:36;5.30;;;2.80;;
38123;SDS011;23934;47.998;9.832;2023-04-25T06:18:02;10.93;;;3.97;;
38123;SDS011;23934;47.998;9.832;2023-04-25T06:20:28;7.78;;;3.25;;
38123;SDS011;23934;47.998;9.832;2023-04-25T06:22:54;9.57;;;3.92;;
38123;SDS011;23934;47.998;9.832;2023-04-25T06:25:20;8.20;;;3.45;;
38123;SDS011;23934;47.998;9.832;2023-04-25T06:27:46;9.95;;;4.30;;
38123;SDS011;23934;47.998;9.832;2023-04-25T06:30:12;16.67;;;6.00;;
38123;SDS011;23934;47.998;9.832;2023-04-25T06:32:38;13.13;;;4.43;;
38123;SDS011;23934;47.998;9.832;2023-04-25T06:35:04;12.98;;;3.50;;
38123;SDS011;23934;47.998;9.832;2023-04-25T06:37:31;11.70;;;3.97;;
38123;SDS011;23934;47.998;9.832;2023-04-25T06:39:57;10.02;;;4.55;;
38123;SDS011;23934;47.998;9.832;2023-04-25T06:42:23;10.00;;;3.75;;
38123;SDS011;23934;47.998;9.832;2023-04-25T06:44:48;12.15;;;3.47;;
38123;SDS011;23934;47.998;9.832;2023-04-25T06:47:15;8.88;;;3.92;;
38123;SDS011;23934;47.998;9.832;2023-04-25T06:49:40;7.45;;;2.95;;
38123;SDS011;23934;47.998;9.832;2023-04-25T06:52:07;7.78;;;3.13;;
38123;SDS011;23934;47.998;9.832;2023-04-25T06:54:33;9.98;;;3.17;;
38123;SDS011;23934;47.998;9.832;2023-04-25T06:56:59;4.55;;;2.38;;
38123;SDS011;23934;47.998;9.832;2023-04-25T06:59:26;10.95;;;2.55;;
38123;SDS011;23934;47.998;9.832;2023-04-25T07:01:52;6.15;;;2.05;;
38123;SDS011;23934;47.998;9.832;2023-04-25T07:04:18;3.28;;;2.03;;
38123;SDS011;23934;47.998;9.832;2023-04-25T07:06:44;2.85;;;1.98;;
38123;SDS011;23934;47.998;9.832;2023-04-25T07:09:12;3.40;;;1.88;;
38123;SDS011;23934;47.998;9.832;2023-04-25T07:11:38;5.50;;;2.03;;
38123;SDS011;23934;47.998;9.832;2023-04-25T07:14:04;5.45;;;1.80;;
38123;SDS011;23934;47.998;9.832;2023-04-25T07:16:30;6.78;;;2.30;;
38123;SDS011;23934;47.998;9.832;2023-04-25T07:18:56;6.07;;;2.15;;
38123;SDS011;23934;47.998;9.832;2023-04-25T07:21:22;5.15;;;2.22;;
38123;SDS011;23934;47.998;9.832;2023-04-25T07:23:48;8.60;;;2.30;;
38123;SDS011;23934;47.998;9.832;2023-04-25T07:26:14;4.28;;;1.80;;
38123;SDS011;23934;47.998;9.832;2023-04-25T07:28:40;11.48;;;2.42;;
38123;SDS011;23934;47.998;9.832;2023-04-25T07:31:05;5.15;;;1.92;;
38123;SDS011;23934;47.998;9.832;2023-04-25T07:33:31;8.55;;;2.28;;
38123;SDS011;23934;47.998;9.832;2023-04-25T07:35:57;12.82;;;2.38;;
38123;SDS011;23934;47.998;9.832;2023-04-25T07:38:23;4.75;;;1.83;;
38123;SDS011;23934;47.998;9.832;2023-04-25T07:40:49;6.40;;;2.25;;
38123;SDS011;23934;47.998;9.832;2023-04-25T07:43:15;6.05;;;2.00;;
38123;SDS011;23934;47.998;9.832;2023-04-25T07:45:45;5.72;;;2.15;;
38123;SDS011;23934;47.998;9.832;2023-04-25T07:48:11;6.25;;;1.85;;
38123;SDS011;23934;47.998;9.832;2023-04-25T07:50:37;3.88;;;2.03;;
38123;SDS011;23934;47.998;9.832;2023-04-25T07:53:03;10.38;;;1.95;;
38123;SDS011;23934;47.998;9.832;2023-04-25T07:55:29;5.50;;;1.98;;
38123;SDS011;23934;47.998;9.832;2023-04-25T07:57:55;4.13;;;1.92;;
38123;SDS011;23934;47.998;9.832;2023-04-25T08:00:21;8.85;;;2.42;;
38123;SDS011;23934;47.998;9.832;2023-04-25T08:02:47;5.47;;;2.08;;
38123;SDS011;23934;47.998;9.832;2023-04-25T08:05:12;10.02;;;2.17;;
38123;SDS011;23934;47.998;9.832;2023-04-25T08:07:40;10.57;;;2.20;;
38123;SDS011;23934;47.998;9.832;2023-04-25T08:10:06;5.80;;;2.50;;
38123;SDS011;23934;47.998;9.832;2023-04-25T08:12:32;6.57;;;2.08;;
38123;SDS011;23934;47.998;9.832;2023-04-25T08:14:58;4.60;;;2.25;;
38123;SDS011;23934;47.998;9.832;2023-04-25T08:17:24;6.63;;;2.20;;
38123;SDS011;23934;47.998;9.832;2023-04-25T08:19:50;5.32;;;2.03;;
38123;SDS011;23934;47.998;9.832;2023-04-25T08:22:16;11.38;;;3.00;;
38123;SDS011;23934;47.998;9.832;2023-04-25T08:24:42;5.85;;;2.35;;
38123;SDS011;23934;47.998;9.832;2023-04-25T08:27:08;3.65;;;1.42;;
38123;SDS011;23934;47.998;9.832;2023-04-25T08:29:34;3.47;;;1.25;;
38123;SDS011;23934;47.998;9.832;2023-04-25T08:32:00;5.43;;;1.90;;
38123;SDS011;23934;47.998;9.832;2023-04-25T08:34:26;4.75;;;1.30;;
38123;SDS011;23934;47.998;9.832;2023-04-25T08:36:52;4.38;;;1.90;;
38123;SDS011;23934;47.998;9.832;2023-04-25T08:39:18;9.18;;;2.50;;
38123;SDS011;23934;47.998;9.832;2023-04-25T08:41:45;2.33;;;1.40;;
38123;SDS011;23934;47.998;9.832;2023-04-25T08:44:11;4.10;;;1.60;;
38123;SDS011;23934;47.998;9.832;2023-04-25T08:46:38;10.95;;;3.55;;
38123;SDS011;23934;47.998;9.832;2023-04-25T08:49:07;17.33;;;3.33;;
38123;SDS011;23934;47.998;9.832;2023-04-25T08:51:40;3.80;;;1.70;;
38123;SDS011;23934;47.998;9.832;2023-04-25T08:54:12;2.97;;;1.77;;
38123;SDS011;23934;47.998;9.832;2023-04-25T08:56:43;3.42;;;1.58;;
38123;SDS011;23934;47.998;9.832;2023-04-25T09:01:35;4.75;;;1.60;;
38123;SDS011;23934;47.998;9.832;2023-04-25T09:04:01;6.47;;;1.70;;
38123;SDS011;23934;47.998;9.832;2023-04-25T09:06:31;5.82;;;2.15;;
38123;SDS011;23934;47.998;9.832;2023-04-25T09:09:04;2.75;;;1.50;;
38123;SDS011;23934;47.998;9.832;2023-04-25T09:11:34;4.35;;;1.90;;
38123;SDS011;23934;47.998;9.832;2023-04-25T09:14:17;6.25;;;2.17;;
38123;SDS011;23934;47.998;9.832;2023-04-25T09:16:58;8.20;;;1.83;;
38123;SDS011;23934;47.998;9.832;2023-04-25T09:19:26;5.57;;;2.63;;
38123;SDS011;23934;47.998;9.832;2023-04-25T09:21:55;5.57;;;2.65;;
38123;SDS011;23934;47.998;9.832;2023-04-25T09:27:00;6.13;;;1.45;;
38123;SDS011;23934;47.998;9.832;2023-04-25T09:29:29;13.88;;;2.58;;
38123;SDS011;23934;47.998;9.832;2023-04-25T09:32:11;2.30;;;1.27;;
38123;SDS011;23934;47.998;9.832;2023-04-25T09:34:41;10.73;;;1.75;;
38123;SDS011;23934;47.998;9.832;2023-04-25T09:37:09;0.52;;;0.52;;
38123;SDS011;23934;47.998;9.832;2023-04-25T09:39:36;5.28;;;1.98;;
38123;SDS011;23934;47.998;9.832;2023-04-25T09:42:02;1.05;;;0.70;;
38123;SDS011;23934;47.998;9.832;2023-04-25T09:44:28;1.13;;;0.70;;
38123;SDS011;23934;47.998;9.832;2023-04-25T09:46:54;3.88;;;1.80;;
38123;SDS011;23934;47.998;9.832;2023-04-25T09:49:20;3.10;;;1.30;;
38123;SDS011;23934;47.998;9.832;2023-04-25T09:51:56;1.70;;;1.23;;
38123;SDS011;23934;47.998;9.832;2023-04-25T09:54:23;11.90;;;3.15;;
38123;SDS011;23934;47.998;9.832;2023-04-25T09:56:49;5.65;;;2.58;;
38123;SDS011;23934;47.998;9.832;2023-04-25T09:59:16;5.85;;;2.38;;
38123;SDS011;23934;47.998;9.832;2023-04-25T10:01:44;4.55;;;1.15;;
38123;SDS011;23934;47.998;9.832;2023-04-25T10:04:11;4.63;;;1.95;;
38123;SDS011;23934;47.998;9.832;2023-04-25T10:06:37;2.83;;;1.58;;
38123;SDS011;23934;47.998;9.832;2023-04-25T10:09:03;4.90;;;1.48;;
38123;SDS011;23934;47.998;9.832;2023-04-25T10:11:29;4.57;;;1.95;;
38123;SDS011;23934;47.998;9.832;2023-04-25T10:13:56;1.25;;;0.63;;
38123;SDS011;23934;47.998;9.832;2023-04-25T10:16:22;4.18;;;1.60;;
38123;SDS011;23934;47.998;9.832;2023-04-25T10:18:48;4.88;;;1.63;;
38123;SDS011;23934;47.998;9.832;2023-04-25T10:21:15;2.80;;;1.25;;
38123;SDS011;23934;47.998;9.832;2023-04-25T10:23:41;3.83;;;1.67;;
38123;SDS011;23934;47.998;9.832;2023-04-25T10:26:07;4.53;;;2.00;;
38123;SDS011;23934;47.998;9.832;2023-04-25T10:31:44;3.08;;;1.38;;
38123;SDS011;23934;47.998;9.832;2023-04-25T10:34:10;2.35;;;1.17;;
38123;SDS011;23934;47.998;9.832;2023-04-25T10:36:36;2.30;;;1.00;;
38123;SDS011;23934;47.998;9.832;2023-04-25T10:39:03;2.75;;;1.05;;
38123;SDS011;23934;47.998;9.832;2023-04-25T10:42:07;1.38;;;1.02;;
38123;SDS011;23934;47.998;9.832;2023-04-25T10:44:27;3.00;;;1.33;;
38123;SDS011;23934;47.998;9.832;2023-04-25T10:46:57;3.92;;;1.48;;
38123;SDS011;23934;47.998;9.832;2023-04-25T10:49:33;2.60;;;1.17;;
38123;SDS011;23934;47.998;9.832;2023-04-25T10:54:41;3.33;;;1.40;;
38123;SDS011;23934;47.998;9.832;2023-04-25T10:57:07;4.20;;;1.52;;
38123;SDS011;23934;47.998;9.832;2023-04-25T10:59:33;1.90;;;0.82;;
38123;SDS011;23934;47.998;9.832;2023-04-25T11:01:59;3.03;;;1.08;;
38123;SDS011;23934;47.998;9.832;2023-04-25T11:04:37;2.03;;;1.02;;
38123;SDS011;23934;47.998;9.832;2023-04-25T11:09:55;2.55;;;1.40;;
38123;SDS011;23934;47.998;9.832;2023-04-25T11:12:21;2.28;;;1.45;;
38123;SDS011;23934;47.998;9.832;2023-04-25T11:14:50;6.35;;;1.45;;
38123;SDS011;23934;47.998;9.832;2023-04-25T11:17:16;1.88;;;1.10;;
38123;SDS011;23934;47.998;9.832;2023-04-25T11:19:42;8.52;;;1.52;;
38123;SDS011;23934;47.998;9.832;2023-04-25T11:22:09;2.88;;;1.25;;
38123;SDS011;23934;47.998;9.832;2023-04-25T11:24:36;2.50;;;1.30;;
38123;SDS011;23934;47.998;9.832;2023-04-25T11:27:04;4.57;;;1.52;;
38123;SDS011;23934;47.998;9.832;2023-04-25T11:29:31;5.28;;;1.65;;
38123;SDS011;23934;47.998;9.832;2023-04-25T11:31:57;3.47;;;1.77;;
38123;SDS011;23934;47.998;9.832;2023-04-25T11:34:24;8.07;;;1.45;;
38123;SDS011;23934;47.998;9.832;2023-04-25T11:36:50;5.05;;;2.00;;
38123;SDS011;23934;47.998;9.832;2023-04-25T11:39:17;5.47;;;1.75;;
38123;SDS011;23934;47.998;9.832;2023-04-25T11:41:43;2.95;;;1.40;;
38123;SDS011;23934;47.998;9.832;2023-04-25T11:44:09;5.50;;;1.80;;
38123;SDS011;23934;47.998;9.832;2023-04-25T11:46:36;2.58;;;1.02;;
38123;SDS011;23934;47.998;9.832;2023-04-25T11:49:02;3.15;;;1.50;;
38123;SDS011;23934;47.998;9.832;2023-04-25T11:51:29;3.88;;;1.55;;
38123;SDS011;23934;47.998;9.832;2023-04-25T11:53:56;6.95;;;2.53;;
38123;SDS011;23934;47.998;9.832;2023-04-25T11:56:22;4.13;;;1.90;;
38123;SDS011;23934;47.998;9.832;2023-04-25T11:59:01;1.38;;;0.82;;
38123;SDS011;23934;47.998;9.832;2023-04-25T12:01:28;1.85;;;1.05;;
38123;SDS011;23934;47.998;9.832;2023-04-25T12:03:58;1.42;;;1.00;;
38123;SDS011;23934;47.998;9.832;2023-04-25T12:06:27;1.45;;;0.70;;
38123;SDS011;23934;47.998;9.832;2023-04-25T12:09:03;2.63;;;1.20;;
38123;SDS011;23934;47.998;9.832;2023-04-25T12:11:32;3.10;;;0.82;;
38123;SDS011;23934;47.998;9.832;2023-04-25T12:14:06;2.25;;;0.80;;
38123;SDS011;23934;47.998;9.832;2023-04-25T12:16:41;0.75;;;0.55;;
38123;SDS011;23934;47.998;9.832;2023-04-25T12:19:07;0.40;;;0.40;;
38123;SDS011;23934;47.998;9.832;2023-04-25T12:21:34;0.40;;;0.40;;
38123;SDS011;23934;47.998;9.832;2023-04-25T12:24:10;0.30;;;0.30;;
38123;SDS011;23934;47.998;9.832;2023-04-25T12:26:46;1.65;;;0.38;;
38123;SDS011;23934;47.998;9.832;2023-04-25T12:29:32;1.05;;;0.70;;
38123;SDS011;23934;47.998;9.832;2023-04-25T12:31:58;0.40;;;0.30;;
38123;SDS011;23934;47.998;9.832;2023-04-25T12:34:26;2.17;;;0.82;;
38123;SDS011;23934;47.998;9.832;2023-04-25T12:36:52;0.40;;;0.40;;
38123;SDS011;23934;47.998;9.832;2023-04-25T12:39:20;0.95;;;0.30;;
38123;SDS011;23934;47.998;9.832;2023-04-25T12:41:46;0.43;;;0.40;;
38123;SDS011;23934;47.998;9.832;2023-04-25T12:44:12;0.38;;;0.22;;
38123;SDS011;23934;47.998;9.832;2023-04-25T12:46:39;1.05;;;0.40;;
38123;SDS011;23934;47.998;9.832;2023-04-25T12:49:05;0.85;;;0.30;;
38123;SDS011;23934;47.998;9.832;2023-04-25T12:51:33;0.77;;;0.60;;
38123;SDS011;23934;47.998;9.832;2023-04-25T12:53:59;0.35;;;0.30;;
38123;SDS011;23934;47.998;9.832;2023-04-25T12:56:26;0.25;;;0.25;;
38123;SDS011;23934;47.998;9.832;2023-04-25T12:58:52;0.30;;;0.30;;
38123;SDS011;23934;47.998;9.832;2023-04-25T13:01:18;0.10;;;0.10;;
38123;SDS011;23934;47.998;9.832;2023-04-25T13:03:44;4.88;;;0.30;;
38123;SDS011;23934;47.998;9.832;2023-04-25T13:06:11;0.20;;;0.20;;
38123;SDS011;23934;47.998;9.832;2023-04-25T13:08:38;0.38;;;0.28;;
38123;SDS011;23934;47.998;9.832;2023-04-25T13:11:04;0.20;;;0.20;;
38123;SDS011;23934;47.998;9.832;2023-04-25T13:13:30;0.30;;;0.30;;
38123;SDS011;23934;47.998;9.832;2023-04-25T13:15:56;0.28;;;0.25;;
38123;SDS011;23934;47.998;9.832;2023-04-25T13:18:22;0.20;;;0.20;;
38123;SDS011;23934;47.998;9.832;2023-04-25T13:20:52;0.20;;;0.20;;
38123;SDS011;23934;47.998;9.832;2023-04-25T13:23:18;0.15;;;0.15;;
38123;SDS011;23934;47.998;9.832;2023-04-25T13:25:45;0.20;;;0.20;;
38123;SDS011;23934;47.998;9.832;2023-04-25T13:28:11;2.08;;;0.57;;
38123;SDS011;23934;47.998;9.832;2023-04-25T13:30:37;0.60;;;0.40;;
38123;SDS011;23934;47.998;9.832;2023-04-25T13:33:03;0.20;;;0.20;;
38123;SDS011;23934;47.998;9.832;2023-04-25T13:35:31;2.63;;;0.80;;
38123;SDS011;23934;47.998;9.832;2023-04-25T13:37:57;1.13;;;0.50;;
38123;SDS011;23934;47.998;9.832;2023-04-25T13:40:23;0.20;;;0.20;;
38123;SDS011;23934;47.998;9.832;2023-04-25T13:42:49;0.40;;;0.30;;
38123;SDS011;23934;47.998;9.832;2023-04-25T13:45:16;0.55;;;0.22;;
38123;SDS011;23934;47.998;9.832;2023-04-25T13:47:42;0.32;;;0.20;;
38123;SDS011;23934;47.998;9.832;2023-04-25T13:50:08;0.20;;;0.15;;
38123;SDS011;23934;47.998;9.832;2023-04-25T13:52:34;1.15;;;0.50;;
38123;SDS011;23934;47.998;9.832;2023-04-25T13:55:00;0.30;;;0.30;;
38123;SDS011;23934;47.998;9.832;2023-04-25T13:57:30;0.40;;;0.22;;
38123;SDS011;23934;47.998;9.832;2023-04-25T13:59:56;0.20;;;0.20;;
38123;SDS011;23934;47.998;9.832;2023-04-25T14:02:22;2.15;;;0.98;;
38123;SDS011;23934;47.998;9.832;2023-04-25T14:04:48;3.40;;;0.30;;
38123;SDS011;23934;47.998;9.832;2023-04-25T14:07:14;0.20;;;0.20;;
38123;SDS011;23934;47.998;9.832;2023-04-25T14:09:44;3.00;;;0.90;;
38123;SDS011;23934;47.998;9.832;2023-04-25T14:12:10;4.03;;;1.00;;
38123;SDS011;23934;47.998;9.832;2023-04-25T14:14:36;2.65;;;0.82;;
38123;SDS011;23934;47.998;9.832;2023-04-25T14:17:03;2.05;;;0.80;;
38123;SDS011;23934;47.998;9.832;2023-04-25T14:19:29;3.05;;;1.42;;
38123;SDS011;23934;47.998;9.832;2023-04-25T14:21:55;3.63;;;1.00;;
38123;SDS011;23934;47.998;9.832;2023-04-25T14:24:21;4.50;;;0.60;;
38123;SDS011;23934;47.998;9.832;2023-04-25T14:26:47;2.75;;;1.10;;
38123;SDS011;23934;47.998;9.832;2023-04-25T14:29:13;4.20;;;1.83;;
38123;SDS011;23934;47.998;9.832;2023-04-25T14:31:39;0.43;;;0.43;;
38123;SDS011;23934;47.998;9.832;2023-04-25T14:34:05;0.43;;;0.30;;
38123;SDS011;23934;47.998;9.832;2023-04-25T14:36:32;0.43;;;0.43;;
38123;SDS011;23934;47.998;9.832;2023-04-25T14:38:58;0.70;;;0.40;;
38123;SDS011;23934;47.998;9.832;2023-04-25T14:41:25;0.55;;;0.38;;
38123;SDS011;23934;47.998;9.832;2023-04-25T14:43:51;0.77;;;0.40;;
38123;SDS011;23934;47.998;9.832;2023-04-25T14:46:18;0.40;;;0.40;;
38123;SDS011;23934;47.998;9.832;2023-04-25T14:48:44;0.40;;;0.32;;
38123;SDS011;23934;47.998;9.832;2023-04-25T14:51:10;0.50;;;0.40;;
38123;SDS011;23934;47.998;9.832;2023-04-25T14:53:37;1.00;;;0.30;;
38123;SDS011;23934;47.998;9.832;2023-04-25T14:56:03;0.47;;;0.30;;